A80 TRACON Summary / KATL TAF
ATL TRACON Summary:
A cold front will move southeast through the TRACON airspace between 03-06z with isolated showers and BKN/OVC020-050 clouds. Surface winds will be southwest at 8-12kts, becoming northwest at 10-15kts with 20-25kt gusts by 05z. Hazards in the TRACON airspace: MOD turbulence below 080 and possible LLWS after 04z.

Updated:1/29/2015 6:38 PM
ATL Terminal Aerodrome Forecast:

FTUS31 KATL 300524
KATL 300523Z 3006/3112 22010KT P6SM SCT025 OVC045
      TEMPO 3007/3009 32012G20KT P6SM -RA BKN025
     FM300900 32013G22KT P6SM OVC020
     FM301200 32014G24KT P6SM SCT040
     FM301500 32014G24KT P6SM SCT150
     FM310000 33009KT P6SM SKC
ATL TRACON Area Remark:
NONE.
Convective Gate Forecast / Icing Gate Forecast / Vertical Wind Profile (click on image to enlarge)
Convective Gate Forecast
Icing Gate Forecast

table with gate forecasts (convective and CCFP) used April - November while icing gate forecasts are issued

AIRMETs & SIGMETS/ Southeast Radar loop / Satellite Image (click on image to enlarge)

Southeast Radar Loop

 



USA.gov is the U.S. government's official web portal to all federal, state and local government web resources and services.